D91 weather

Spencerport Airpark
Spencerport, New York, United States

Public forecast

Using degrees Fahrenheit for public forecast. Weather courtesy of forecast.io.

METAR (pilot weather report)

Closest report is Greater Rochester International Airport, 7.1 nm (13.1 km) ESE. Retrieved 2019/05/22 09:54 UTC (53 minutes ago):

KROC 220954Z 00000KT 10SM FEW090 BKN250 07/04 A3023 RMK AO2 SLP240 T00670044

TAF (pilot weather forecast)

Closest forecast is Greater Rochester International Airport, 7.1 nm (13.1 km) ESE. Retrieved 2019/05/22 06:30 UTC (4 hours ago):

TAF KROC 220527Z 2206/2306 25004KT P6SM FEW250 FM221700 11007KT P6SM BKN150 FM222000 11009KT P6SM SCT100 FM222300 12009KT P6SM BKN090 FM230200 16008KT P6SM VCSH BKN050